Time;durP1;ratioP1;P1;durP2;ratioP2;P2;SDS_P1;SDS_P2;PMS_P1;PMS_P2;Temp;Humidity;BMP_temperature;BMP_pressure;BME280_temperature;BME280_humidity;BME280_pressure;Samples;Min_cycle;Max_cycle;Signal;HPM_P1;HPM_P2
2023/06/12 00:01:48;;;;;;;5.43;4.93;;;19.20;95.10;;;;;;5087104;28;20058;-36
2023/06/12 00:04:15;;;;;;;7.70;4.93;;;19.10;95.40;;;;;;5078081;28;20047;-34
2023/06/12 00:06:41;;;;;;;6.68;4.65;;;19.00;95.80;;;;;;5084848;28;20054;-34
2023/06/12 00:09:07;;;;;;;6.68;4.82;;;19.00;96.30;;;;;;5077395;28;20111;-35
2023/06/12 00:11:32;;;;;;;6.05;4.75;;;18.90;97.00;;;;;;5064028;28;20052;-38
2023/06/12 00:13:58;;;;;;;5.57;4.63;;;18.90;96.90;;;;;;5084153;28;20043;-34
2023/06/12 00:16:24;;;;;;;6.18;4.85;;;18.90;96.80;;;;;;5076976;28;20036;-35
2023/06/12 00:18:51;;;;;;;5.68;4.47;;;18.90;97.20;;;;;;5089660;28;20046;-33
2023/06/12 00:21:19;;;;;;;6.47;4.32;;;18.80;97.60;;;;;;5081351;28;20037;-34
2023/06/12 00:23:46;;;;;;;6.18;4.53;;;18.80;97.00;;;;;;5085442;28;20075;-33
2023/06/12 00:26:11;;;;;;;5.10;4.57;;;18.80;97.70;;;;;;5078229;28;20051;-34
2023/06/12 00:28:37;;;;;;;5.88;3.97;;;18.70;97.10;;;;;;5081704;28;20032;-34
2023/06/12 00:31:03;;;;;;;5.45;4.95;;;18.70;97.50;;;;;;5080538;28;20032;-36
2023/06/12 00:33:29;;;;;;;5.30;4.45;;;18.70;97.70;;;;;;5081073;28;20499;-34
2023/06/12 00:35:55;;;;;;;6.25;4.28;;;18.60;98.30;;;;;;5073755;28;20036;-33
2023/06/12 00:38:21;;;;;;;5.90;4.32;;;18.60;98.90;;;;;;5084952;28;20051;-34
2023/06/12 00:40:48;;;;;;;5.43;4.50;;;18.50;99.20;;;;;;5076574;28;20070;-34
2023/06/12 00:43:15;;;;;;;6.30;4.18;;;18.50;99.80;;;;;;5077529;28;20042;-34
2023/06/12 00:45:41;;;;;;;6.50;4.57;;;18.40;99.90;;;;;;5075192;28;20059;-34
2023/06/12 00:48:07;;;;;;;4.00;3.60;;;18.40;99.90;;;;;;5076674;28;20114;-33
2023/06/12 00:50:39;;;;;;;4.50;4.10;;;18.30;99.90;;;;;;5089943;28;20484;-34
2023/06/12 00:53:05;;;;;;;7.40;4.45;;;18.30;99.90;;;;;;5078556;28;20105;-34
2023/06/12 00:55:32;;;;;;;6.05;4.35;;;18.20;99.90;;;;;;5078990;28;20035;-34
2023/06/12 00:58:00;;;;;;;6.78;4.28;;;18.20;99.90;;;;;;5082413;28;20040;-34
2023/06/12 01:00:27;;;;;;;5.55;4.45;;;18.10;99.90;;;;;;5084945;28;20084;-34
2023/06/12 01:03:06;;;;;;;4.95;3.97;;;18.10;99.90;;;;;;5081366;28;20040;-34
2023/06/12 01:05:38;;;;;;;5.18;3.95;;;18.00;99.90;;;;;;5069414;28;20312;-35
2023/06/12 01:08:33;;;;;;;4.00;3.60;;;18.00;99.90;;;;;;5083934;28;20038;-34
2023/06/12 01:11:11;;;;;;;6.57;4.50;;;18.00;99.90;;;;;;5065089;28;20040;-38
2023/06/12 01:13:38;;;;;;;6.80;4.15;;;17.90;99.90;;;;;;5077756;28;20032;-34
2023/06/12 01:16:05;;;;;;;4.65;3.90;;;17.90;99.90;;;;;;5071075;28;20055;-34
2023/06/12 01:18:33;;;;;;;6.00;4.28;;;17.80;99.90;;;;;;5075800;28;20037;-34
2023/06/12 01:21:01;;;;;;;4.78;4.38;;;17.80;99.90;;;;;;5084706;28;20039;-34
2023/06/12 01:23:38;;;;;;;5.90;4.40;;;17.80;99.90;;;;;;5082256;28;20044;-37
2023/06/12 01:26:25;;;;;;;5.07;3.80;;;17.80;99.90;;;;;;5073623;28;20043;-34
2023/06/12 01:29:13;;;;;;;5.07;3.92;;;17.80;99.90;;;;;;5073963;28;20504;-34
2023/06/12 01:31:56;;;;;;;7.35;4.38;;;17.80;99.90;;;;;;5093256;28;20063;-37
2023/06/12 01:34:29;;;;;;;5.07;3.92;;;17.70;99.90;;;;;;5075070;28;20074;-34
2023/06/12 01:37:05;;;;;;;8.10;4.15;;;17.60;99.90;;;;;;5073234;28;20028;-34
2023/06/12 01:39:39;;;;;;;5.07;4.15;;;17.60;99.90;;;;;;5067846;28;20536;-34
2023/06/12 01:42:07;;;;;;;5.40;3.63;;;17.50;99.90;;;;;;5075973;28;20035;-34
2023/06/12 01:44:33;;;;;;;5.90;4.38;;;17.50;99.90;;;;;;5083808;28;20062;-34
2023/06/12 01:46:59;;;;;;;5.45;3.83;;;17.50;99.90;;;;;;5074359;28;20527;-35
2023/06/12 01:49:25;;;;;;;6.43;4.10;;;17.40;99.90;;;;;;5075497;28;20032;-34
2023/06/12 01:51:51;;;;;;;6.05;4.45;;;17.30;99.90;;;;;;5078182;28;20031;-33
2023/06/12 01:54:22;;;;;;;4.15;3.75;;;17.30;99.90;;;;;;5067852;28;20116;-33
2023/06/12 01:56:49;;;;;;;4.65;4.05;;;17.20;99.90;;;;;;5080402;28;20038;-34
2023/06/12 01:59:15;;;;;;;4.78;4.00;;;17.20;99.90;;;;;;5077893;28;20377;-35
2023/06/12 02:01:41;;;;;;;8.05;3.38;;;17.10;99.90;;;;;;5084133;28;20028;-34
2023/06/12 02:04:07;;;;;;;4.13;3.38;;;17.10;99.90;;;;;;5077524;28;20106;-33
2023/06/12 02:06:32;;;;;;;6.60;4.60;;;17.10;99.90;;;;;;5081246;28;20458;-34
2023/06/12 02:08:58;;;;;;;4.30;3.90;;;17.00;99.90;;;;;;5083997;28;20092;-35
2023/06/12 02:11:24;;;;;;;6.47;4.03;;;16.90;99.90;;;;;;5082481;28;20034;-35
2023/06/12 02:13:49;;;;;;;5.43;3.78;;;16.90;99.90;;;;;;5086651;28;20040;-34
2023/06/12 02:16:21;;;;;;;4.25;3.85;;;16.90;99.90;;;;;;5081599;28;20113;-33
2023/06/12 02:18:47;;;;;;;5.45;3.85;;;16.80;99.90;;;;;;5086355;28;20491;-34
2023/06/12 02:21:13;;;;;;;5.35;3.50;;;16.80;99.90;;;;;;5084402;28;20504;-33
2023/06/12 02:23:38;;;;;;;5.93;3.63;;;16.80;99.90;;;;;;5082846;28;20118;-34
2023/06/12 02:26:04;;;;;;;8.40;4.05;;;16.70;99.90;;;;;;5075002;28;20562;-35
2023/06/12 02:28:30;;;;;;;7.95;4.00;;;16.70;99.90;;;;;;5077349;28;20084;-34
2023/06/12 02:30:56;;;;;;;5.82;4.07;;;16.60;99.90;;;;;;5078912;28;20035;-35
2023/06/12 02:33:25;;;;;;;4.63;3.80;;;16.60;99.90;;;;;;5073603;28;20042;-33
2023/06/12 02:35:51;;;;;;;4.32;3.35;;;16.60;99.90;;;;;;5076593;28;20068;-34
2023/06/12 02:38:17;;;;;;;4.72;4.00;;;16.50;99.90;;;;;;5084699;28;20115;-34
2023/06/12 02:40:42;;;;;;;8.02;4.60;;;16.50;99.90;;;;;;5061669;28;20140;-35
2023/06/12 02:43:08;;;;;;;6.13;3.80;;;16.40;99.90;;;;;;5064859;28;20043;-34
2023/06/12 02:45:34;;;;;;;5.75;4.00;;;16.40;99.90;;;;;;5062829;28;20409;-34
2023/06/12 02:48:00;;;;;;;6.70;4.03;;;16.30;99.90;;;;;;5084743;28;20036;-33
2023/06/12 02:50:26;;;;;;;4.55;4.00;;;16.30;99.90;;;;;;5071442;28;20039;-33
2023/06/12 02:52:52;;;;;;;5.50;3.83;;;16.30;99.90;;;;;;5083266;28;20405;-34
2023/06/12 02:55:18;;;;;;;6.28;4.07;;;16.20;99.90;;;;;;5056111;28;20080;-34
2023/06/12 02:57:44;;;;;;;4.55;3.78;;;16.20;99.90;;;;;;5080478;28;20044;-34
2023/06/12 03:00:12;;;;;;;5.72;4.13;;;16.20;99.90;;;;;;5071356;28;20055;-33
2023/06/12 03:02:42;;;;;;;6.13;4.43;;;16.10;99.90;;;;;;5076826;28;20589;-34
2023/06/12 03:05:16;;;;;;;4.97;3.63;;;16.10;99.90;;;;;;5080575;28;20050;-35
2023/06/12 03:07:41;;;;;;;;;;;16.10;99.90;;;;;;5075427;28;20489;-35
2023/06/12 03:10:08;;;;;;;6.68;4.57;;;16.10;99.90;;;;;;5080503;28;19915;-36
2023/06/12 03:12:34;;;;;;;5.47;4.00;;;16.00;99.90;;;;;;5069905;28;20043;-34
2023/06/12 03:15:04;;;;;;;7.32;4.20;;;16.00;99.90;;;;;;5079931;28;20070;-35
2023/06/12 03:17:30;;;;;;;4.90;4.00;;;16.00;99.90;;;;;;5064672;28;20089;-34
2023/06/12 03:19:56;;;;;;;5.15;3.80;;;16.00;99.90;;;;;;5059481;28;20041;-34
2023/06/12 03:22:22;;;;;;;6.95;4.53;;;16.00;99.90;;;;;;5086553;28;20035;-34
2023/06/12 03:24:53;;;;;;;5.18;4.38;;;15.90;99.90;;;;;;5075007;28;20044;-33
2023/06/12 03:27:20;;;;;;;4.90;4.05;;;15.90;99.90;;;;;;5084670;28;20396;-35
2023/06/12 03:29:45;;;;;;;5.65;4.20;;;15.90;99.90;;;;;;5085725;28;20059;-36
2023/06/12 03:32:11;;;;;;;7.75;4.05;;;15.90;99.90;;;;;;5082306;28;20444;-34
2023/06/12 03:34:37;;;;;;;5.28;4.18;;;15.90;99.90;;;;;;5080420;28;20112;-34
2023/06/12 03:37:03;;;;;;;4.55;3.83;;;15.80;99.90;;;;;;5084838;28;20191;-34
2023/06/12 03:39:28;;;;;;;4.70;4.13;;;15.80;99.90;;;;;;5082504;28;20032;-34
2023/06/12 03:41:56;;;;;;;5.68;4.03;;;15.80;99.90;;;;;;5094705;28;20114;-34
2023/06/12 03:44:22;;;;;;;4.95;4.40;;;15.80;99.90;;;;;;5091808;28;20099;-34
2023/06/12 03:46:48;;;;;;;7.57;4.30;;;15.70;99.90;;;;;;5079640;28;20127;-34
2023/06/12 03:49:14;;;;;;;6.05;4.45;;;15.70;99.90;;;;;;5083326;28;20039;-34
2023/06/12 03:51:41;;;;;;;6.45;4.45;;;15.70;99.90;;;;;;5081583;28;20188;-34
2023/06/12 03:54:07;;;;;;;8.38;4.05;;;15.70;99.90;;;;;;5084669;28;20031;-36
2023/06/12 03:56:33;;;;;;;6.50;4.35;;;15.70;99.90;;;;;;5085594;28;20035;-35
2023/06/12 03:59:00;;;;;;;5.57;4.35;;;15.70;99.90;;;;;;5068539;28;20036;-33
2023/06/12 04:01:26;;;;;;;4.72;4.20;;;15.70;99.90;;;;;;5086585;28;20507;-34
2023/06/12 04:03:53;;;;;;;5.15;4.15;;;15.70;99.90;;;;;;5084227;28;20035;-34
2023/06/12 04:06:22;;;;;;;8.55;4.38;;;15.70;99.90;;;;;;5077853;28;20446;-36
2023/06/12 04:08:48;;;;;;;4.57;4.18;;;15.80;99.90;;;;;;5078003;28;20074;-34
2023/06/12 04:11:14;;;;;;;7.97;4.60;;;15.80;99.90;;;;;;5072587;28;20040;-34
2023/06/12 04:13:41;;;;;;;10.35;4.53;;;15.80;99.90;;;;;;5082817;28;20043;-34
2023/06/12 04:16:07;;;;;;;5.00;4.15;;;15.80;99.90;;;;;;5074099;28;20115;-34
2023/06/12 04:18:33;;;;;;;8.45;4.28;;;15.80;99.90;;;;;;5085035;28;20047;-34
2023/06/12 04:21:00;;;;;;;5.80;4.32;;;15.80;99.90;;;;;;5084503;28;20097;-36
2023/06/12 04:23:30;;;;;;;7.53;4.60;;;15.80;99.90;;;;;;5078634;28;20088;-34
2023/06/12 04:26:05;;;;;;;7.40;4.35;;;15.80;99.90;;;;;;5073552;28;20100;-33
2023/06/12 04:28:32;;;;;;;6.13;4.65;;;15.90;99.90;;;;;;5079359;28;20047;-34
2023/06/12 04:30:59;;;;;;;7.82;4.57;;;15.90;99.90;;;;;;5074939;28;20051;-34
2023/06/12 04:33:30;;;;;;;5.20;4.72;;;15.90;99.90;;;;;;5086012;28;20101;-35
2023/06/12 04:35:57;;;;;;;7.15;4.38;;;15.90;99.90;;;;;;5081563;28;20044;-34
2023/06/12 04:38:25;;;;;;;5.80;4.45;;;15.90;99.90;;;;;;5075676;28;20035;-36
2023/06/12 04:40:52;;;;;;;6.15;4.55;;;15.90;99.90;;;;;;5070691;28;20401;-37
2023/06/12 04:43:21;;;;;;;7.93;4.72;;;15.90;99.90;;;;;;5076076;28;20125;-34
2023/06/12 04:45:47;;;;;;;8.20;4.88;;;16.00;99.90;;;;;;5076001;28;20481;-34
2023/06/12 04:48:13;;;;;;;10.93;4.70;;;16.00;99.90;;;;;;5044967;28;20079;-34
2023/06/12 04:50:40;;;;;;;6.05;4.75;;;16.10;99.90;;;;;;5070757;28;20528;-35
2023/06/12 04:53:06;;;;;;;6.75;4.85;;;16.10;99.90;;;;;;5068008;28;20048;-35
2023/06/12 04:55:32;;;;;;;9.23;4.72;;;16.10;99.90;;;;;;5072973;28;20044;-34
2023/06/12 04:57:58;;;;;;;6.97;4.90;;;16.20;99.90;;;;;;5076873;28;20512;-34
2023/06/12 05:00:25;;;;;;;6.68;5.45;;;16.20;99.90;;;;;;5074086;28;20075;-33
2023/06/12 05:02:55;;;;;;;6.60;5.07;;;16.30;99.90;;;;;;5038657;28;20032;-34
2023/06/12 05:05:21;;;;;;;8.77;5.20;;;16.40;99.90;;;;;;5068315;28;20097;-34
2023/06/12 05:07:48;;;;;;;9.88;5.80;;;16.40;99.90;;;;;;5074046;28;20046;-35
2023/06/12 05:10:15;;;;;;;7.65;5.28;;;16.50;99.90;;;;;;5075450;28;20040;-34
2023/06/12 05:12:41;;;;;;;6.35;4.97;;;16.50;99.90;;;;;;5081287;28;20488;-33
2023/06/12 05:15:08;;;;;;;8.23;5.85;;;16.60;99.90;;;;;;5063076;28;20078;-36
2023/06/12 05:17:34;;;;;;;6.80;5.68;;;16.70;99.90;;;;;;5077714;28;20040;-34
2023/06/12 05:20:00;;;;;;;7.78;6.13;;;16.70;99.90;;;;;;5064728;28;20043;-34
2023/06/12 05:22:25;;;;;;;6.32;5.35;;;16.80;99.90;;;;;;5064980;28;20127;-34
2023/06/12 05:24:51;;;;;;;7.88;5.15;;;16.90;99.90;;;;;;5062808;28;20197;-35
2023/06/12 05:27:17;;;;;;;7.53;5.32;;;17.00;99.90;;;;;;5054396;28;20550;-36
2023/06/12 05:29:42;;;;;;;6.25;5.68;;;17.10;99.90;;;;;;5063810;28;20036;-36
2023/06/12 05:32:08;;;;;;;6.03;5.10;;;17.20;99.90;;;;;;5064015;28;20092;-38
2023/06/12 05:34:36;;;;;;;8.00;5.70;;;17.30;99.90;;;;;;5068394;28;20500;-34
2023/06/12 05:37:03;;;;;;;6.72;4.47;;;17.40;99.90;;;;;;5069619;28;20051;-36
2023/06/12 05:39:28;;;;;;;7.57;5.30;;;17.50;99.90;;;;;;5070492;28;20486;-34
2023/06/12 05:41:54;;;;;;;9.00;5.70;;;17.70;99.90;;;;;;5063422;28;20041;-34
2023/06/12 05:44:20;;;;;;;6.03;5.43;;;17.80;99.90;;;;;;5063848;28;20463;-34
2023/06/12 05:46:50;;;;;;;6.57;5.47;;;17.90;99.90;;;;;;5042164;28;20089;-35
2023/06/12 05:49:16;;;;;;;8.00;5.50;;;18.00;99.90;;;;;;5044375;28;20123;-34
2023/06/12 05:51:41;;;;;;;7.03;5.20;;;18.10;99.90;;;;;;5083365;28;20044;-35
2023/06/12 05:54:07;;;;;;;6.63;5.63;;;18.20;99.90;;;;;;5079209;28;20462;-33
2023/06/12 05:56:33;;;;;;;7.43;5.60;;;18.30;99.90;;;;;;5075455;28;20074;-34
2023/06/12 05:58:59;;;;;;;7.82;5.47;;;18.40;99.90;;;;;;5090943;28;20042;-33
2023/06/12 06:01:25;;;;;;;7.50;5.32;;;18.50;99.90;;;;;;5070722;28;20480;-34
2023/06/12 06:03:52;;;;;;;7.00;5.45;;;18.60;99.90;;;;;;5065189;28;20032;-33
2023/06/12 06:06:18;;;;;;;7.38;5.93;;;18.80;99.90;;;;;;5079677;28;20043;-37
2023/06/12 06:08:44;;;;;;;9.73;5.47;;;18.90;99.90;;;;;;5069088;28;20036;-34
2023/06/12 06:11:10;;;;;;;9.68;6.03;;;19.00;99.90;;;;;;5063037;28;20045;-33
2023/06/12 06:13:36;;;;;;;12.30;6.13;;;19.10;99.90;;;;;;5076259;28;20043;-33
2023/06/12 06:16:02;;;;;;;8.73;6.20;;;19.20;99.90;;;;;;5068630;28;20032;-36
2023/06/12 06:18:29;;;;;;;8.77;5.97;;;19.30;99.90;;;;;;5071699;28;20147;-36
2023/06/12 06:20:55;;;;;;;7.38;6.18;;;19.40;99.90;;;;;;5083278;28;20535;-37
2023/06/12 06:23:21;;;;;;;8.18;6.50;;;19.40;99.90;;;;;;5072323;28;20088;-36
2023/06/12 06:25:47;;;;;;;8.90;6.15;;;19.60;99.90;;;;;;5068534;28;20562;-37
2023/06/12 06:28:14;;;;;;;8.68;5.72;;;19.70;99.90;;;;;;5068091;28;20148;-34
2023/06/12 06:30:39;;;;;;;8.43;6.00;;;19.80;99.90;;;;;;5065574;28;20036;-34
2023/06/12 06:33:05;;;;;;;6.35;5.43;;;20.00;99.90;;;;;;5063726;28;20493;-35
2023/06/12 06:35:31;;;;;;;8.25;6.20;;;20.10;99.90;;;;;;5070790;28;20036;-37
2023/06/12 06:37:57;;;;;;;6.95;5.90;;;20.30;99.90;;;;;;5072252;28;20063;-34
2023/06/12 06:40:23;;;;;;;7.85;6.15;;;20.40;99.90;;;;;;5074033;28;20119;-34
2023/06/12 06:42:48;;;;;;;8.63;5.97;;;20.50;99.90;;;;;;5062150;28;20031;-33
2023/06/12 06:45:14;;;;;;;7.25;5.70;;;20.70;99.90;;;;;;5081531;28;20554;-34
2023/06/12 06:47:40;;;;;;;8.43;6.15;;;20.80;99.90;;;;;;5075029;28;20068;-39
2023/06/12 06:50:06;;;;;;;9.80;6.10;;;21.00;99.90;;;;;;5073233;28;20089;-36
2023/06/12 06:52:32;;;;;;;7.35;6.55;;;21.00;99.90;;;;;;5098153;28;20122;-34
2023/06/12 06:54:58;;;;;;;6.88;5.55;;;21.30;99.90;;;;;;5080733;28;20115;-35
2023/06/12 06:57:23;;;;;;;11.48;6.43;;;21.50;99.90;;;;;;5074122;28;20062;-37
2023/06/12 06:59:50;;;;;;;7.55;6.50;;;21.60;99.90;;;;;;5067214;28;20485;-34
2023/06/12 07:02:16;;;;;;;8.43;5.88;;;21.70;99.90;;;;;;5071113;28;20036;-36
2023/06/12 07:04:42;;;;;;;8.15;5.65;;;21.80;99.90;;;;;;5072306;28;20131;-36
2023/06/12 07:07:08;;;;;;;8.38;6.57;;;21.90;99.90;;;;;;5064679;28;20038;-34
2023/06/12 07:09:34;;;;;;;9.30;7.20;;;22.00;99.90;;;;;;5075147;28;20106;-37
2023/06/12 07:12:00;;;;;;;10.60;6.95;;;22.20;99.90;;;;;;5064570;28;20507;-37
2023/06/12 07:14:26;;;;;;;6.25;5.65;;;22.30;99.90;;;;;;5081766;28;20032;-36
2023/06/12 07:16:52;;;;;;;7.03;5.97;;;22.40;99.90;;;;;;5058132;28;20070;-37
2023/06/12 07:19:18;;;;;;;8.68;5.63;;;22.50;99.90;;;;;;5069409;28;20720;-34
2023/06/12 07:21:43;;;;;;;8.65;6.28;;;22.80;99.90;;;;;;5064281;28;20028;-34
2023/06/12 07:24:09;;;;;;;7.57;6.03;;;22.90;99.90;;;;;;5065634;28;20111;-34
2023/06/12 07:26:35;;;;;;;9.60;6.10;;;23.00;99.90;;;;;;5073029;28;20035;-34
2023/06/12 07:29:01;;;;;;;8.32;6.47;;;23.10;99.90;;;;;;5067608;28;20399;-34
2023/06/12 07:31:27;;;;;;;8.70;6.07;;;23.20;99.90;;;;;;5070009;28;20047;-34
2023/06/12 07:33:53;;;;;;;9.02;5.43;;;23.30;99.90;;;;;;5072921;28;20500;-36
2023/06/12 07:36:19;;;;;;;5.80;5.22;;;23.40;99.90;;;;;;5070116;28;20505;-34
2023/06/12 07:38:47;;;;;;;8.40;6.07;;;23.60;99.90;;;;;;5076502;28;20039;-34
2023/06/12 07:41:13;;;;;;;6.90;6.05;;;23.60;99.90;;;;;;5069861;28;20063;-35
2023/06/12 07:43:39;;;;;;;9.55;5.93;;;23.80;99.90;;;;;;5078611;28;20105;-34
2023/06/12 07:46:04;;;;;;;6.10;5.30;;;24.00;99.90;;;;;;5072097;28;20046;-34
2023/06/12 07:48:30;;;;;;;7.38;5.93;;;24.20;99.90;;;;;;5076166;28;20165;-34
2023/06/12 07:50:56;;;;;;;7.82;5.68;;;24.30;99.90;;;;;;5080566;28;20464;-34
2023/06/12 07:53:22;;;;;;;8.38;6.32;;;24.40;99.90;;;;;;5073024;28;20048;-34
2023/06/12 07:55:49;;;;;;;7.18;5.70;;;24.50;99.90;;;;;;5078425;28;20122;-34
2023/06/12 07:58:15;;;;;;;9.35;5.63;;;24.60;99.90;;;;;;5076505;28;20094;-33
2023/06/12 08:00:41;;;;;;;10.10;5.47;;;24.70;99.80;;;;;;5070079;28;20061;-34
2023/06/12 08:03:08;;;;;;;6.18;5.57;;;24.80;99.90;;;;;;5087977;28;20035;-34
2023/06/12 08:05:35;;;;;;;8.02;6.15;;;24.90;99.50;;;;;;5074383;28;20404;-34
2023/06/12 08:08:01;;;;;;;7.28;6.03;;;25.00;98.30;;;;;;5080107;28;20044;-34
2023/06/12 08:10:27;;;;;;;6.85;5.80;;;25.20;97.60;;;;;;5078449;28;20392;-35
2023/06/12 08:12:53;;;;;;;7.07;6.38;;;25.30;96.80;;;;;;5077833;28;20036;-34
2023/06/12 08:15:22;;;;;;;7.28;6.50;;;25.40;96.80;;;;;;5085415;28;20047;-36
2023/06/12 08:17:48;;;;;;;7.68;5.57;;;25.50;96.00;;;;;;5082814;28;20110;-35
2023/06/12 08:20:15;;;;;;;6.53;5.50;;;25.60;95.70;;;;;;5086128;28;20186;-35
2023/06/12 08:22:42;;;;;;;8.70;5.97;;;25.80;95.60;;;;;;5072350;28;20032;-35
2023/06/12 08:25:09;;;;;;;7.68;5.78;;;26.00;94.40;;;;;;5068656;28;20046;-35
2023/06/12 08:27:35;;;;;;;8.57;6.15;;;26.20;92.00;;;;;;5082898;28;20390;-35
2023/06/12 08:30:02;;;;;;;6.85;5.40;;;26.40;90.50;;;;;;5075244;28;20043;-34
2023/06/12 08:32:28;;;;;;;6.32;5.53;;;26.60;83.80;;;;;;5081430;28;20028;-34
2023/06/12 08:34:54;;;;;;;6.70;6.00;;;26.90;83.10;;;;;;5089114;28;20450;-36
2023/06/12 08:37:21;;;;;;;11.40;6.30;;;27.00;78.80;;;;;;5084334;28;20507;-37
2023/06/12 08:39:47;;;;;;;9.30;6.13;;;27.30;77.60;;;;;;5076308;28;20394;-35
2023/06/12 08:42:17;;;;;;;10.27;6.20;;;27.40;74.20;;;;;;5074982;28;20031;-37
2023/06/12 08:44:47;;;;;;;8.25;6.40;;;27.50;70.90;;;;;;5069399;28;20533;-34
2023/06/12 08:47:16;;;;;;;7.47;5.40;;;27.60;70.30;;;;;;5058311;28;20044;-36
2023/06/12 08:49:42;;;;;;;6.65;5.97;;;27.80;68.70;;;;;;5083765;28;20043;-34
2023/06/12 08:52:10;;;;;;;9.95;5.80;;;27.70;67.00;;;;;;5085114;28;20522;-36
2023/06/12 08:54:47;;;;;;;6.30;5.63;;;27.80;68.70;;;;;;5082003;28;20039;-35
2023/06/12 08:57:13;;;;;;;7.15;6.45;;;27.90;65.70;;;;;;5071404;28;20508;-35
2023/06/12 08:59:39;;;;;;;9.63;6.38;;;27.90;64.80;;;;;;5055305;28;20036;-35
2023/06/12 09:02:08;;;;;;;7.32;6.72;;;27.90;64.80;;;;;;5082829;28;20043;-35
2023/06/12 09:05:01;;;;;;;6.78;6.18;;;28.20;64.10;;;;;;5053439;28;20036;-35
2023/06/12 09:07:29;;;;;;;11.35;5.80;;;28.40;63.50;;;;;;5046928;28;20033;-34
2023/06/12 09:09:55;;;;;;;6.85;6.13;;;28.70;62.30;;;;;;5073613;28;20493;-38
2023/06/12 09:12:22;;;;;;;7.55;6.75;;;29.00;61.90;;;;;;5071723;28;20031;-35
2023/06/12 09:14:50;;;;;;;12.15;6.25;;;29.10;59.70;;;;;;5071505;28;20048;-35
2023/06/12 09:17:17;;;;;;;7.57;5.97;;;29.20;58.60;;;;;;5078691;28;20396;-35
2023/06/12 09:19:45;;;;;;;7.28;6.55;;;29.50;58.40;;;;;;5065415;28;20040;-37
2023/06/12 09:22:12;;;;;;;9.00;5.72;;;29.50;56.80;;;;;;5066602;28;20108;-35
2023/06/12 09:24:38;;;;;;;8.10;6.57;;;29.40;57.20;;;;;;5083290;28;20075;-38
2023/06/12 09:27:05;;;;;;;7.80;6.97;;;29.50;57.90;;;;;;5082419;28;20085;-35
2023/06/12 09:29:32;;;;;;;6.53;5.93;;;29.70;57.10;;;;;;5087096;28;20036;-35
2023/06/12 09:32:03;;;;;;;8.93;6.57;;;29.90;56.50;;;;;;5085174;28;20123;-35
2023/06/12 09:34:33;;;;;;;7.43;6.72;;;30.00;55.00;;;;;;5076562;28;20081;-35
2023/06/12 09:37:00;;;;;;;8.18;6.97;;;30.20;54.50;;;;;;5099578;28;20028;-35
2023/06/12 09:39:28;;;;;;;7.47;6.78;;;30.40;53.50;;;;;;5075205;28;20415;-35
2023/06/12 09:42:00;;;;;;;7.57;6.88;;;30.40;52.60;;;;;;5071167;28;20032;-35
2023/06/12 09:44:28;;;;;;;7.60;6.90;;;30.70;52.50;;;;;;5059474;28;20032;-38
2023/06/12 09:47:04;;;;;;;7.43;6.82;;;30.80;53.10;;;;;;5076478;28;20028;-37
2023/06/12 09:49:32;;;;;;;6.95;6.43;;;30.90;50.50;;;;;;5085987;28;20039;-37
2023/06/12 09:52:05;;;;;;;7.43;6.70;;;31.00;50.70;;;;;;5076483;28;20032;-35
2023/06/12 09:54:32;;;;;;;7.93;7.20;;;31.10;49.70;;;;;;5072862;28;20056;-37
2023/06/12 09:57:00;;;;;;;7.32;6.72;;;31.30;50.30;;;;;;5073465;28;20397;-38
2023/06/12 09:59:32;;;;;;;7.43;6.72;;;31.40;47.70;;;;;;5081921;28;20060;-38
2023/06/12 10:02:17;;;;;;;7.50;6.95;;;31.50;46.70;;;;;;5070357;28;20032;-36
2023/06/12 10:05:01;;;;;;;7.28;6.78;;;31.70;44.00;;;;;;5069536;28;20037;-38
2023/06/12 10:07:35;;;;;;;7.85;6.40;;;31.80;44.90;;;;;;5082614;28;20042;-38
2023/06/12 10:10:02;;;;;;;6.38;5.88;;;31.90;43.30;;;;;;5079161;28;20032;-36
2023/06/12 10:12:31;;;;;;;6.63;6.03;;;31.90;41.20;;;;;;5081372;28;20036;-37
2023/06/12 10:14:58;;;;;;;7.15;6.57;;;32.00;40.60;;;;;;5066059;28;20047;-35
2023/06/12 10:17:24;;;;;;;6.65;6.05;;;31.80;40.30;;;;;;5073709;28;20041;-36
2023/06/12 10:19:52;;;;;;;7.78;6.25;;;31.90;40.50;;;;;;5083532;28;20040;-36
2023/06/12 10:22:17;;;;;;;7.47;6.78;;;32.10;40.70;;;;;;5069047;28;20032;-36
2023/06/12 10:24:44;;;;;;;7.10;6.55;;;32.30;40.10;;;;;;5078913;28;20084;-37
2023/06/12 10:27:11;;;;;;;10.05;6.97;;;32.40;40.70;;;;;;5082339;28;20038;-35
2023/06/12 10:29:38;;;;;;;6.82;6.13;;;32.40;40.70;;;;;;5079615;28;20072;-38
2023/06/12 10:32:08;;;;;;;6.80;6.30;;;32.50;40.90;;;;;;5060497;28;20042;-35
2023/06/12 10:34:35;;;;;;;7.30;6.70;;;32.80;39.70;;;;;;5091857;28;20036;-36
2023/06/12 10:37:25;;;;;;;7.47;6.55;;;33.10;40.60;;;;;;5087576;28;20035;-35
2023/06/12 10:40:10;;;;;;;7.45;6.85;;;33.50;39.30;;;;;;5079322;28;20036;-35
2023/06/12 10:42:54;;;;;;;7.35;6.75;;;33.40;39.10;;;;;;5070500;28;20195;-37
2023/06/12 10:45:25;;;;;;;7.63;6.90;;;33.40;37.40;;;;;;5075992;28;20434;-38
2023/06/12 10:48:03;;;;;;;8.60;6.93;;;33.30;39.20;;;;;;5103316;28;20047;-35
2023/06/12 10:50:32;;;;;;;7.50;6.90;;;33.30;39.30;;;;;;5078576;28;20032;-35
2023/06/12 10:53:04;;;;;;;7.40;6.90;;;33.40;38.30;;;;;;5076144;28;20089;-37
2023/06/12 10:55:31;;;;;;;8.05;7.35;;;33.50;37.40;;;;;;5066509;28;20086;-36
2023/06/12 10:58:06;;;;;;;8.38;7.57;;;33.20;36.30;;;;;;5062685;28;20040;-36
2023/06/12 11:00:36;;;;;;;8.77;8.02;;;33.10;35.50;;;;;;5061112;28;20115;-35
2023/06/12 11:03:11;;;;;;;8.88;8.07;;;33.00;35.90;;;;;;5082659;28;20572;-39
2023/06/12 11:05:38;;;;;;;8.30;7.63;;;33.10;36.80;;;;;;5064144;28;20517;-36
2023/06/12 11:08:06;;;;;;;9.32;7.05;;;33.10;37.10;;;;;;5093782;28;20044;-38
2023/06/12 11:10:34;;;;;;;8.00;7.40;;;33.40;37.70;;;;;;5063144;28;20497;-37
2023/06/12 11:13:01;;;;;;;8.00;7.40;;;33.60;37.60;;;;;;5082630;28;20040;-35
2023/06/12 11:15:27;;;;;;;8.13;7.43;;;33.90;38.50;;;;;;5071726;28;20032;-38
2023/06/12 11:17:53;;;;;;;7.72;7.13;;;34.00;37.00;;;;;;5067339;28;20059;-35
2023/06/12 11:20:22;;;;;;;7.50;6.82;;;34.20;36.80;;;;;;5079470;28;20103;-33
2023/06/12 11:22:49;;;;;;;8.02;7.22;;;33.70;36.80;;;;;;5077656;28;20064;-32
2023/06/12 11:25:17;;;;;;;8.40;7.60;;;33.50;37.40;;;;;;5080579;28;20585;-36
2023/06/12 11:27:43;;;;;;;9.15;7.47;;;33.20;37.10;;;;;;5082721;28;20040;-32
2023/06/12 11:30:13;;;;;;;8.90;7.30;;;33.40;38.30;;;;;;5078311;28;20036;-32
2023/06/12 11:32:39;;;;;;;8.02;7.32;;;33.80;36.90;;;;;;5082129;28;20512;-33
2023/06/12 11:35:07;;;;;;;7.35;6.85;;;34.20;37.00;;;;;;5086740;28;20087;-35
2023/06/12 11:37:33;;;;;;;8.00;7.20;;;34.40;36.40;;;;;;5078047;28;20097;-33
2023/06/12 11:40:07;;;;;;;7.63;7.03;;;34.60;36.80;;;;;;5068514;28;20044;-32
2023/06/12 11:42:33;;;;;;;7.80;7.10;;;34.90;35.00;;;;;;5079363;28;20067;-35
2023/06/12 11:45:00;;;;;;;8.30;7.50;;;34.90;35.00;;;;;;5078257;28;20135;-38
2023/06/12 11:47:26;;;;;;;7.93;7.15;;;34.70;34.30;;;;;;5057399;28;20076;-35
2023/06/12 11:49:52;;;;;;;7.65;6.93;;;34.80;34.90;;;;;;5077454;28;20524;-33
2023/06/12 11:52:21;;;;;;;7.63;6.93;;;35.00;35.20;;;;;;5079675;28;20114;-33
2023/06/12 11:55:04;;;;;;;7.82;7.20;;;35.20;34.50;;;;;;5081428;28;20035;-36
2023/06/12 11:57:30;;;;;;;7.57;6.95;;;35.50;34.00;;;;;;5059045;28;20029;-33
2023/06/12 11:59:57;;;;;;;7.53;6.93;;;35.60;33.30;;;;;;5064585;28;20511;-33
2023/06/12 12:02:39;;;;;;;7.85;7.07;;;35.90;33.50;;;;;;5075330;28;20039;-33
2023/06/12 12:05:08;;;;;;;7.38;6.78;;;36.00;33.40;;;;;;5065786;28;20448;-33
2023/06/12 12:07:38;;;;;;;7.13;6.63;;;35.80;32.70;;;;;;5072636;28;20489;-33
2023/06/12 12:10:08;;;;;;;7.63;6.88;;;35.60;31.80;;;;;;5060864;28;20094;-33
2023/06/12 12:12:49;;;;;;;7.55;6.95;;;35.90;32.20;;;;;;5066673;28;20417;-32
2023/06/12 12:15:16;;;;;;;7.55;6.85;;;36.10;30.90;;;;;;5065163;28;20032;-34
2023/06/12 12:17:43;;;;;;;8.52;7.03;;;36.20;33.00;;;;;;5062769;28;20024;-33
2023/06/12 12:20:20;;;;;;;7.22;6.53;;;36.10;32.20;;;;;;5088193;28;20032;-33
2023/06/12 12:22:48;;;;;;;7.68;6.97;;;35.80;32.00;;;;;;5076642;28;20032;-36
2023/06/12 12:25:20;;;;;;;7.88;7.15;;;35.70;32.70;;;;;;5057666;28;20040;-33
2023/06/12 12:27:46;;;;;;;7.90;6.97;;;36.00;32.90;;;;;;5070203;28;20040;-33
2023/06/12 12:30:16;;;;;;;7.82;6.28;;;36.20;33.50;;;;;;5060084;28;20405;-33
2023/06/12 12:32:48;;;;;;;6.65;6.05;;;36.60;33.40;;;;;;5063781;28;20050;-34
2023/06/12 12:35:17;;;;;;;7.18;6.68;;;36.90;34.00;;;;;;5058382;28;20094;-33
2023/06/12 12:37:47;;;;;;;7.30;6.53;;;37.10;33.20;;;;;;5065129;28;20426;-36
2023/06/12 12:40:14;;;;;;;6.50;6.03;;;36.70;31.90;;;;;;5065702;28;20093;-36
2023/06/12 12:42:42;;;;;;;7.60;7.00;;;36.00;31.50;;;;;;5064523;28;20598;-33
2023/06/12 12:45:10;;;;;;;7.25;6.65;;;35.70;33.10;;;;;;5063736;28;20043;-33
2023/06/12 12:47:36;;;;;;;6.90;6.30;;;35.70;33.60;;;;;;5065158;28;20036;-34
2023/06/12 12:50:03;;;;;;;7.15;6.60;;;35.70;33.50;;;;;;5064373;28;20155;-34